sensor_id;sensor_type;location;lat;lon;timestamp;pressure;altitude;pressure_sealevel;temperature;humidity
68380;BME280;57711;53.196;19.638;2023-02-19T00:01:35;99517.60;;;3.04;68.83
68380;BME280;57711;53.196;19.638;2023-02-19T00:04:06;99514.73;;;3.01;68.79
68380;BME280;57711;53.196;19.638;2023-02-19T00:06:34;99506.95;;;2.95;68.65
68380;BME280;57711;53.196;19.638;2023-02-19T00:09:03;99502.64;;;2.90;68.60
68380;BME280;57711;53.196;19.638;2023-02-19T00:11:32;99506.81;;;2.87;68.59
68380;BME280;57711;53.196;19.638;2023-02-19T00:14:01;99512.85;;;2.82;68.72
68380;BME280;57711;53.196;19.638;2023-02-19T00:16:33;99516.06;;;2.82;68.64
68380;BME280;57711;53.196;19.638;2023-02-19T00:19:04;99511.88;;;2.78;68.61
68380;BME280;57711;53.196;19.638;2023-02-19T00:21:31;99513.25;;;2.76;68.65
68380;BME280;57711;53.196;19.638;2023-02-19T00:24:01;99519.83;;;2.74;68.70
68380;BME280;57711;53.196;19.638;2023-02-19T00:26:30;99518.12;;;2.71;68.62
68380;BME280;57711;53.196;19.638;2023-02-19T00:28:58;99518.10;;;2.68;68.66
68380;BME280;57711;53.196;19.638;2023-02-19T00:31:28;99514.81;;;2.67;68.67
68380;BME280;57711;53.196;19.638;2023-02-19T00:34:05;99515.09;;;2.68;68.74
68380;BME280;57711;53.196;19.638;2023-02-19T00:36:33;99516.75;;;2.67;68.73
68380;BME280;57711;53.196;19.638;2023-02-19T00:39:03;99524.23;;;2.64;68.63
68380;BME280;57711;53.196;19.638;2023-02-19T00:41:31;99529.35;;;2.60;68.68
68380;BME280;57711;53.196;19.638;2023-02-19T00:44:04;99530.52;;;2.56;68.58
68380;BME280;57711;53.196;19.638;2023-02-19T00:46:37;99532.14;;;2.53;68.62
68380;BME280;57711;53.196;19.638;2023-02-19T00:49:06;99531.73;;;2.52;68.64
68380;BME280;57711;53.196;19.638;2023-02-19T00:51:36;99525.20;;;2.50;68.64
68380;BME280;57711;53.196;19.638;2023-02-19T00:54:05;99523.88;;;2.49;68.71
68380;BME280;57711;53.196;19.638;2023-02-19T00:56:32;99528.23;;;2.45;68.71
68380;BME280;57711;53.196;19.638;2023-02-19T00:59:00;99526.14;;;2.42;68.71
68380;BME280;57711;53.196;19.638;2023-02-19T01:01:27;99522.94;;;2.39;68.66
68380;BME280;57711;53.196;19.638;2023-02-19T01:03:54;99518.29;;;2.36;68.75
68380;BME280;57711;53.196;19.638;2023-02-19T01:06:22;99522.78;;;2.36;68.69
68380;BME280;57711;53.196;19.638;2023-02-19T01:08:49;99522.30;;;2.33;68.79
68380;BME280;57711;53.196;19.638;2023-02-19T01:11:18;99518.18;;;2.30;68.89
68380;BME280;57711;53.196;19.638;2023-02-19T01:13:46;99516.10;;;2.29;68.68
68380;BME280;57711;53.196;19.638;2023-02-19T01:16:17;99522.30;;;2.30;68.81
68380;BME280;57711;53.196;19.638;2023-02-19T01:18:45;99519.45;;;2.30;68.92
68380;BME280;57711;53.196;19.638;2023-02-19T01:21:16;99526.52;;;2.28;68.86
68380;BME280;57711;53.196;19.638;2023-02-19T01:23:45;99525.02;;;2.26;68.87
68380;BME280;57711;53.196;19.638;2023-02-19T01:26:15;99525.00;;;2.26;68.88
68380;BME280;57711;53.196;19.638;2023-02-19T01:28:43;99531.80;;;2.26;68.87
68380;BME280;57711;53.196;19.638;2023-02-19T01:31:13;99531.21;;;2.27;68.87
68380;BME280;57711;53.196;19.638;2023-02-19T01:33:45;99519.89;;;2.26;68.88
68380;BME280;57711;53.196;19.638;2023-02-19T01:36:13;99520.21;;;2.23;68.89
68380;BME280;57711;53.196;19.638;2023-02-19T01:38:41;99517.23;;;2.20;68.94
68380;BME280;57711;53.196;19.638;2023-02-19T01:41:14;99517.36;;;2.18;68.92
68380;BME280;57711;53.196;19.638;2023-02-19T01:44:03;99516.13;;;2.18;68.89
68380;BME280;57711;53.196;19.638;2023-02-19T01:46:32;99513.38;;;2.19;68.85
68380;BME280;57711;53.196;19.638;2023-02-19T01:49:12;99511.38;;;2.19;68.96
68380;BME280;57711;53.196;19.638;2023-02-19T01:51:45;99503.95;;;2.18;69.04
68380;BME280;57711;53.196;19.638;2023-02-19T01:54:16;99507.14;;;2.19;69.10
68380;BME280;57711;53.196;19.638;2023-02-19T01:56:46;99506.44;;;2.21;68.91
68380;BME280;57711;53.196;19.638;2023-02-19T01:59:15;99508.75;;;2.24;68.94
68380;BME280;57711;53.196;19.638;2023-02-19T02:01:44;99508.48;;;2.26;68.91
68380;BME280;57711;53.196;19.638;2023-02-19T02:04:12;99502.63;;;2.25;68.90
68380;BME280;57711;53.196;19.638;2023-02-19T02:06:48;99498.43;;;2.24;68.84
68380;BME280;57711;53.196;19.638;2023-02-19T02:09:21;99500.95;;;2.21;68.90
68380;BME280;57711;53.196;19.638;2023-02-19T02:12:08;99503.30;;;2.20;69.05
68380;BME280;57711;53.196;19.638;2023-02-19T02:14:38;99506.05;;;2.22;68.83
68380;BME280;57711;53.196;19.638;2023-02-19T02:17:27;99504.74;;;2.23;68.93
68380;BME280;57711;53.196;19.638;2023-02-19T02:20:31;99498.12;;;2.26;69.01
68380;BME280;57711;53.196;19.638;2023-02-19T02:26:30;99495.38;;;2.24;68.97
68380;BME280;57711;53.196;19.638;2023-02-19T02:34:05;99495.41;;;2.26;68.91
68380;BME280;57711;53.196;19.638;2023-02-19T02:36:37;99494.91;;;2.26;69.03
68380;BME280;57711;53.196;19.638;2023-02-19T02:39:10;99495.49;;;2.25;68.96
68380;BME280;57711;53.196;19.638;2023-02-19T02:41:44;99493.96;;;2.24;68.92
68380;BME280;57711;53.196;19.638;2023-02-19T02:44:12;99489.80;;;2.25;69.02
68380;BME280;57711;53.196;19.638;2023-02-19T02:46:41;99485.95;;;2.27;68.90
68380;BME280;57711;53.196;19.638;2023-02-19T02:49:19;99487.39;;;2.29;68.93
68380;BME280;57711;53.196;19.638;2023-02-19T02:51:52;99479.52;;;2.27;68.97
68380;BME280;57711;53.196;19.638;2023-02-19T02:54:29;99474.14;;;2.27;69.04
68380;BME280;57711;53.196;19.638;2023-02-19T02:57:18;99471.70;;;2.26;68.98
68380;BME280;57711;53.196;19.638;2023-02-19T02:59:52;99466.24;;;2.25;68.98
68380;BME280;57711;53.196;19.638;2023-02-19T03:02:27;99465.70;;;2.25;68.91
68380;BME280;57711;53.196;19.638;2023-02-19T03:05:06;99461.39;;;2.25;69.00
68380;BME280;57711;53.196;19.638;2023-02-19T03:08:04;99460.45;;;2.26;68.98
68380;BME280;57711;53.196;19.638;2023-02-19T03:10:44;99454.36;;;2.24;69.01
68380;BME280;57711;53.196;19.638;2023-02-19T03:13:26;99451.02;;;2.23;69.04
68380;BME280;57711;53.196;19.638;2023-02-19T03:16:18;99456.93;;;2.23;69.04
68380;BME280;57711;53.196;19.638;2023-02-19T03:19:10;99452.05;;;2.24;69.05
68380;BME280;57711;53.196;19.638;2023-02-19T03:24:46;99445.39;;;2.28;69.13
68380;BME280;57711;53.196;19.638;2023-02-19T03:27:35;99443.32;;;2.29;69.21
68380;BME280;57711;53.196;19.638;2023-02-19T03:30:24;99444.40;;;2.29;69.22
68380;BME280;57711;53.196;19.638;2023-02-19T03:32:59;99447.23;;;2.27;69.03
68380;BME280;57711;53.196;19.638;2023-02-19T03:35:35;99446.98;;;2.25;69.11
68380;BME280;57711;53.196;19.638;2023-02-19T03:38:16;99449.15;;;2.24;69.03
68380;BME280;57711;53.196;19.638;2023-02-19T03:41:04;99448.30;;;2.24;69.01
68380;BME280;57711;53.196;19.638;2023-02-19T03:43:54;99447.81;;;2.23;69.23
68380;BME280;57711;53.196;19.638;2023-02-19T03:46:32;99445.25;;;2.21;69.15
68380;BME280;57711;53.196;19.638;2023-02-19T03:49:07;99447.33;;;2.22;69.09
68380;BME280;57711;53.196;19.638;2023-02-19T03:51:48;99448.73;;;2.23;69.07
68380;BME280;57711;53.196;19.638;2023-02-19T03:57:20;99451.09;;;2.22;69.29
68380;BME280;57711;53.196;19.638;2023-02-19T04:00:03;99449.41;;;2.23;69.38
68380;BME280;57711;53.196;19.638;2023-02-19T04:05:35;99447.53;;;2.25;69.32
68380;BME280;57711;53.196;19.638;2023-02-19T04:08:10;99442.09;;;2.24;69.30
68380;BME280;57711;53.196;19.638;2023-02-19T04:10:44;99442.25;;;2.24;69.30
68380;BME280;57711;53.196;19.638;2023-02-19T04:13:23;99453.73;;;2.22;69.44
68380;BME280;57711;53.196;19.638;2023-02-19T04:15:53;99454.56;;;2.24;69.34
68380;BME280;57711;53.196;19.638;2023-02-19T04:18:30;99452.72;;;2.24;69.47
68380;BME280;57711;53.196;19.638;2023-02-19T04:20:59;99452.85;;;2.25;69.51
68380;BME280;57711;53.196;19.638;2023-02-19T04:23:29;99450.86;;;2.25;69.42
68380;BME280;57711;53.196;19.638;2023-02-19T04:26:00;99447.83;;;2.26;69.50
68380;BME280;57711;53.196;19.638;2023-02-19T04:28:28;99449.19;;;2.27;69.53
68380;BME280;57711;53.196;19.638;2023-02-19T04:30:55;99451.91;;;2.29;69.56
68380;BME280;57711;53.196;19.638;2023-02-19T04:33:23;99450.21;;;2.33;69.46
68380;BME280;57711;53.196;19.638;2023-02-19T04:35:50;99448.11;;;2.35;69.42
68380;BME280;57711;53.196;19.638;2023-02-19T04:38:17;99446.15;;;2.35;69.41
68380;BME280;57711;53.196;19.638;2023-02-19T04:40:44;99444.44;;;2.36;69.52
68380;BME280;57711;53.196;19.638;2023-02-19T04:43:12;99440.63;;;2.37;69.51
68380;BME280;57711;53.196;19.638;2023-02-19T04:45:39;99443.13;;;2.37;69.52
68380;BME280;57711;53.196;19.638;2023-02-19T04:48:07;99446.17;;;2.37;69.49
68380;BME280;57711;53.196;19.638;2023-02-19T04:50:37;99439.95;;;2.39;69.55
68380;BME280;57711;53.196;19.638;2023-02-19T04:53:05;99440.21;;;2.41;69.47
68380;BME280;57711;53.196;19.638;2023-02-19T04:55:36;99443.56;;;2.41;69.43
68380;BME280;57711;53.196;19.638;2023-02-19T04:58:04;99441.35;;;2.40;69.52
68380;BME280;57711;53.196;19.638;2023-02-19T05:00:31;99443.53;;;2.39;69.54
68380;BME280;57711;53.196;19.638;2023-02-19T05:03:00;99438.93;;;2.39;69.61
68380;BME280;57711;53.196;19.638;2023-02-19T05:05:27;99431.92;;;2.39;69.55
68380;BME280;57711;53.196;19.638;2023-02-19T05:07:54;99430.44;;;2.40;69.48
68380;BME280;57711;53.196;19.638;2023-02-19T05:10:22;99431.60;;;2.41;69.52
68380;BME280;57711;53.196;19.638;2023-02-19T05:12:49;99432.55;;;2.40;69.49
68380;BME280;57711;53.196;19.638;2023-02-19T05:15:16;99440.32;;;2.39;69.58
68380;BME280;57711;53.196;19.638;2023-02-19T05:17:43;99439.66;;;2.38;69.70
68380;BME280;57711;53.196;19.638;2023-02-19T05:20:10;99444.91;;;2.37;69.48
68380;BME280;57711;53.196;19.638;2023-02-19T05:22:37;99451.63;;;2.38;69.58
68380;BME280;57711;53.196;19.638;2023-02-19T05:25:05;99448.23;;;2.41;69.59
68380;BME280;57711;53.196;19.638;2023-02-19T05:27:32;99452.52;;;2.41;69.57
68380;BME280;57711;53.196;19.638;2023-02-19T05:29:59;99446.79;;;2.41;69.52
68380;BME280;57711;53.196;19.638;2023-02-19T05:32:26;99444.54;;;2.40;69.62
68380;BME280;57711;53.196;19.638;2023-02-19T05:34:54;99449.98;;;2.39;69.50
68380;BME280;57711;53.196;19.638;2023-02-19T05:37:21;99453.92;;;2.36;69.54
68380;BME280;57711;53.196;19.638;2023-02-19T05:39:48;99449.23;;;2.37;69.69
68380;BME280;57711;53.196;19.638;2023-02-19T05:42:15;99447.77;;;2.37;69.64
68380;BME280;57711;53.196;19.638;2023-02-19T05:44:42;99450.13;;;2.39;69.63
68380;BME280;57711;53.196;19.638;2023-02-19T05:47:10;99448.52;;;2.39;69.55
68380;BME280;57711;53.196;19.638;2023-02-19T05:49:37;99447.11;;;2.36;69.64
68380;BME280;57711;53.196;19.638;2023-02-19T05:52:04;99448.41;;;2.36;69.64
68380;BME280;57711;53.196;19.638;2023-02-19T05:54:31;99452.70;;;2.35;69.66
68380;BME280;57711;53.196;19.638;2023-02-19T05:56:58;99450.76;;;2.38;69.70
68380;BME280;57711;53.196;19.638;2023-02-19T05:59:26;99452.51;;;2.38;69.60
68380;BME280;57711;53.196;19.638;2023-02-19T06:01:54;99450.80;;;2.40;69.62
68380;BME280;57711;53.196;19.638;2023-02-19T06:04:21;99449.40;;;2.42;69.69
68380;BME280;57711;53.196;19.638;2023-02-19T06:06:49;99461.10;;;2.43;69.87
68380;BME280;57711;53.196;19.638;2023-02-19T06:09:16;99460.49;;;2.44;69.74
68380;BME280;57711;53.196;19.638;2023-02-19T06:11:44;99461.41;;;2.41;69.55
68380;BME280;57711;53.196;19.638;2023-02-19T06:14:12;99460.59;;;2.40;69.68
68380;BME280;57711;53.196;19.638;2023-02-19T06:16:40;99458.20;;;2.41;69.66
68380;BME280;57711;53.196;19.638;2023-02-19T06:19:07;99465.15;;;2.41;69.70
68380;BME280;57711;53.196;19.638;2023-02-19T06:21:34;99462.05;;;2.39;69.62
68380;BME280;57711;53.196;19.638;2023-02-19T06:24:06;99470.24;;;2.40;69.70
68380;BME280;57711;53.196;19.638;2023-02-19T06:26:33;99472.02;;;2.38;69.65
68380;BME280;57711;53.196;19.638;2023-02-19T06:29:00;99477.38;;;2.37;69.68
68380;BME280;57711;53.196;19.638;2023-02-19T06:31:28;99482.31;;;2.38;69.77
68380;BME280;57711;53.196;19.638;2023-02-19T06:33:55;99481.92;;;2.41;69.84
68380;BME280;57711;53.196;19.638;2023-02-19T06:36:22;99483.88;;;2.44;69.73
68380;BME280;57711;53.196;19.638;2023-02-19T06:38:50;99486.83;;;2.45;69.78
68380;BME280;57711;53.196;19.638;2023-02-19T06:41:17;99490.21;;;2.45;69.76
68380;BME280;57711;53.196;19.638;2023-02-19T06:43:45;99495.39;;;2.43;69.84
68380;BME280;57711;53.196;19.638;2023-02-19T06:46:13;99498.14;;;2.42;69.74
68380;BME280;57711;53.196;19.638;2023-02-19T06:48:41;99499.95;;;2.41;69.73
68380;BME280;57711;53.196;19.638;2023-02-19T06:51:11;99504.48;;;2.40;69.70
68380;BME280;57711;53.196;19.638;2023-02-19T06:53:39;99507.40;;;2.42;69.68
68380;BME280;57711;53.196;19.638;2023-02-19T06:56:21;99503.76;;;2.40;69.64
68380;BME280;57711;53.196;19.638;2023-02-19T06:58:48;99505.79;;;2.39;69.71
68380;BME280;57711;53.196;19.638;2023-02-19T07:01:16;99508.77;;;2.40;69.90
68380;BME280;57711;53.196;19.638;2023-02-19T07:03:43;99512.29;;;2.41;69.89
68380;BME280;57711;53.196;19.638;2023-02-19T07:06:10;99511.85;;;2.42;69.87
68380;BME280;57711;53.196;19.638;2023-02-19T07:08:37;99513.83;;;2.45;69.85
68380;BME280;57711;53.196;19.638;2023-02-19T07:11:05;99515.73;;;2.51;69.82
68380;BME280;57711;53.196;19.638;2023-02-19T07:13:32;99518.82;;;2.53;69.82
68380;BME280;57711;53.196;19.638;2023-02-19T07:16:01;99513.73;;;2.54;69.78
68380;BME280;57711;53.196;19.638;2023-02-19T07:18:29;99514.27;;;2.54;69.93
68380;BME280;57711;53.196;19.638;2023-02-19T07:21:05;99518.31;;;2.55;69.83
68380;BME280;57711;53.196;19.638;2023-02-19T07:23:32;99520.98;;;2.54;69.93
68380;BME280;57711;53.196;19.638;2023-02-19T07:26:00;99521.37;;;2.54;69.87
68380;BME280;57711;53.196;19.638;2023-02-19T07:28:27;99523.45;;;2.55;69.77
68380;BME280;57711;53.196;19.638;2023-02-19T07:30:59;99527.11;;;2.59;69.90
68380;BME280;57711;53.196;19.638;2023-02-19T07:33:28;99527.64;;;2.62;69.97
68380;BME280;57711;53.196;19.638;2023-02-19T07:35:55;99529.52;;;2.65;69.90
68380;BME280;57711;53.196;19.638;2023-02-19T07:38:23;99536.15;;;2.68;69.97
68380;BME280;57711;53.196;19.638;2023-02-19T07:40:55;99538.89;;;2.70;69.97
68380;BME280;57711;53.196;19.638;2023-02-19T07:43:23;99542.48;;;2.72;69.95
68380;BME280;57711;53.196;19.638;2023-02-19T07:45:51;99549.42;;;2.75;69.93
68380;BME280;57711;53.196;19.638;2023-02-19T07:48:19;99551.77;;;2.80;69.96
68380;BME280;57711;53.196;19.638;2023-02-19T07:50:57;99552.18;;;2.84;69.97
68380;BME280;57711;53.196;19.638;2023-02-19T07:53:26;99551.67;;;2.86;70.04
68380;BME280;57711;53.196;19.638;2023-02-19T07:55:58;99553.14;;;2.86;69.98
68380;BME280;57711;53.196;19.638;2023-02-19T07:58:27;99552.22;;;2.86;70.09
68380;BME280;57711;53.196;19.638;2023-02-19T08:00:55;99550.88;;;2.90;70.14
68380;BME280;57711;53.196;19.638;2023-02-19T08:03:22;99555.34;;;2.95;70.05
68380;BME280;57711;53.196;19.638;2023-02-19T08:05:50;99551.70;;;3.01;70.02
68380;BME280;57711;53.196;19.638;2023-02-19T08:08:19;99550.62;;;3.07;70.15
68380;BME280;57711;53.196;19.638;2023-02-19T08:10:46;99547.91;;;3.13;70.20
68380;BME280;57711;53.196;19.638;2023-02-19T08:13:32;99551.23;;;3.16;70.14
68380;BME280;57711;53.196;19.638;2023-02-19T08:18:45;99556.08;;;3.21;70.27
68380;BME280;57711;53.196;19.638;2023-02-19T08:21:13;99560.85;;;3.27;70.12
68380;BME280;57711;53.196;19.638;2023-02-19T08:23:40;99566.45;;;3.31;70.07
68380;BME280;57711;53.196;19.638;2023-02-19T08:26:07;99566.02;;;3.34;70.14
68380;BME280;57711;53.196;19.638;2023-02-19T08:28:35;99562.34;;;3.38;70.15
68380;BME280;57711;53.196;19.638;2023-02-19T08:31:05;99562.73;;;3.43;70.11
68380;BME280;57711;53.196;19.638;2023-02-19T08:33:33;99569.08;;;3.44;70.04
68380;BME280;57711;53.196;19.638;2023-02-19T08:36:04;99571.91;;;3.45;70.13
68380;BME280;57711;53.196;19.638;2023-02-19T08:38:33;99576.05;;;3.49;70.22
68380;BME280;57711;53.196;19.638;2023-02-19T08:41:05;99574.63;;;3.54;70.27
68380;BME280;57711;53.196;19.638;2023-02-19T08:43:34;99574.00;;;3.61;70.22
68380;BME280;57711;53.196;19.638;2023-02-19T08:46:01;99579.02;;;3.68;70.18
68380;BME280;57711;53.196;19.638;2023-02-19T08:48:29;99575.75;;;3.73;70.38
68380;BME280;57711;53.196;19.638;2023-02-19T08:51:00;99581.25;;;3.82;70.32
68380;BME280;57711;53.196;19.638;2023-02-19T08:53:30;99577.70;;;3.91;70.27
68380;BME280;57711;53.196;19.638;2023-02-19T08:55:58;99575.87;;;3.97;70.28
68380;BME280;57711;53.196;19.638;2023-02-19T08:58:25;99578.03;;;4.04;70.48
68380;BME280;57711;53.196;19.638;2023-02-19T09:00:52;99579.15;;;4.13;70.35
68380;BME280;57711;53.196;19.638;2023-02-19T09:03:20;99587.89;;;4.23;70.28
68380;BME280;57711;53.196;19.638;2023-02-19T09:05:47;99588.83;;;4.35;70.38
68380;BME280;57711;53.196;19.638;2023-02-19T09:08:14;99589.19;;;4.39;70.21
68380;BME280;57711;53.196;19.638;2023-02-19T09:10:41;99591.77;;;4.43;70.18
68380;BME280;57711;53.196;19.638;2023-02-19T09:13:09;99593.38;;;4.46;70.30
68380;BME280;57711;53.196;19.638;2023-02-19T09:15:37;99594.20;;;4.44;70.09
68380;BME280;57711;53.196;19.638;2023-02-19T09:18:04;99596.37;;;4.42;70.21
68380;BME280;57711;53.196;19.638;2023-02-19T09:20:32;99597.54;;;4.38;70.08
68380;BME280;57711;53.196;19.638;2023-02-19T09:22:59;99598.25;;;4.33;69.91
68380;BME280;57711;53.196;19.638;2023-02-19T09:25:26;99594.05;;;4.34;70.10
68380;BME280;57711;53.196;19.638;2023-02-19T09:27:54;99594.51;;;4.43;70.18
68380;BME280;57711;53.196;19.638;2023-02-19T09:30:22;99596.37;;;4.54;70.20
68380;BME280;57711;53.196;19.638;2023-02-19T09:32:49;99595.58;;;4.62;70.03
68380;BME280;57711;53.196;19.638;2023-02-19T09:35:17;99598.20;;;4.72;70.22
68380;BME280;57711;53.196;19.638;2023-02-19T09:37:44;99601.92;;;4.82;70.20
68380;BME280;57711;53.196;19.638;2023-02-19T09:40:12;99607.14;;;4.84;69.88
68380;BME280;57711;53.196;19.638;2023-02-19T09:42:41;99611.04;;;4.87;70.12
68380;BME280;57711;53.196;19.638;2023-02-19T09:45:17;99610.79;;;4.93;70.04
68380;BME280;57711;53.196;19.638;2023-02-19T09:47:46;99605.57;;;4.96;70.08
68380;BME280;57711;53.196;19.638;2023-02-19T09:50:16;99609.83;;;4.94;69.85
68380;BME280;57711;53.196;19.638;2023-02-19T09:52:57;99609.63;;;4.94;69.74
68380;BME280;57711;53.196;19.638;2023-02-19T09:55:31;99611.80;;;4.94;69.79
68380;BME280;57711;53.196;19.638;2023-02-19T09:58:07;99617.50;;;4.92;69.76
68380;BME280;57711;53.196;19.638;2023-02-19T10:00:40;99625.14;;;4.92;69.82
68380;BME280;57711;53.196;19.638;2023-02-19T10:03:13;99625.59;;;4.91;69.74
68380;BME280;57711;53.196;19.638;2023-02-19T10:05:46;99632.89;;;4.92;69.82
68380;BME280;57711;53.196;19.638;2023-02-19T10:08:18;99631.44;;;4.92;69.75
68380;BME280;57711;53.196;19.638;2023-02-19T10:10:46;99636.04;;;4.93;69.85
68380;BME280;57711;53.196;19.638;2023-02-19T10:13:28;99635.86;;;4.96;69.72
68380;BME280;57711;53.196;19.638;2023-02-19T10:15:57;99635.31;;;4.96;69.47
68380;BME280;57711;53.196;19.638;2023-02-19T10:18:28;99636.64;;;4.95;69.54
68380;BME280;57711;53.196;19.638;2023-02-19T10:20:59;99638.31;;;4.94;69.52
68380;BME280;57711;53.196;19.638;2023-02-19T10:23:26;99638.71;;;4.95;69.62
68380;BME280;57711;53.196;19.638;2023-02-19T10:25:55;99640.89;;;5.04;69.85
68380;BME280;57711;53.196;19.638;2023-02-19T10:28:27;99639.80;;;5.09;69.66
68380;BME280;57711;53.196;19.638;2023-02-19T10:30:58;99645.45;;;5.13;69.59
68380;BME280;57711;53.196;19.638;2023-02-19T10:33:26;99645.42;;;5.16;69.65
68380;BME280;57711;53.196;19.638;2023-02-19T10:35:59;99642.02;;;5.16;69.55
68380;BME280;57711;53.196;19.638;2023-02-19T10:41:04;99638.60;;;5.16;69.66
68380;BME280;57711;53.196;19.638;2023-02-19T10:43:36;99645.05;;;5.14;69.55
68380;BME280;57711;53.196;19.638;2023-02-19T10:46:14;99649.56;;;5.16;69.55
68380;BME280;57711;53.196;19.638;2023-02-19T10:48:53;99649.40;;;5.32;69.64
68380;BME280;57711;53.196;19.638;2023-02-19T10:51:36;99654.73;;;5.58;69.94
68380;BME280;57711;53.196;19.638;2023-02-19T10:56:50;99652.75;;;5.99;69.73
68380;BME280;57711;53.196;19.638;2023-02-19T11:04:22;99654.60;;;6.36;69.46
68380;BME280;57711;53.196;19.638;2023-02-19T11:06:50;99654.02;;;6.43;69.35
68380;BME280;57711;53.196;19.638;2023-02-19T11:12:02;99661.73;;;6.37;69.04
68380;BME280;57711;53.196;19.638;2023-02-19T11:14:32;99664.50;;;6.36;69.09
68380;BME280;57711;53.196;19.638;2023-02-19T11:17:02;99664.40;;;6.48;69.44
68380;BME280;57711;53.196;19.638;2023-02-19T11:19:39;99664.08;;;6.63;69.33
68380;BME280;57711;53.196;19.638;2023-02-19T11:22:23;99660.64;;;6.83;69.24
68380;BME280;57711;53.196;19.638;2023-02-19T11:24:55;99663.56;;;7.04;69.31
68380;BME280;57711;53.196;19.638;2023-02-19T11:27:25;99668.62;;;7.19;69.22
68380;BME280;57711;53.196;19.638;2023-02-19T11:29:52;99663.92;;;7.32;69.14
68380;BME280;57711;53.196;19.638;2023-02-19T11:34:47;99663.61;;;7.52;68.91
68380;BME280;57711;53.196;19.638;2023-02-19T11:37:18;99666.58;;;7.62;69.02
68380;BME280;57711;53.196;19.638;2023-02-19T11:39:49;99662.34;;;7.69;68.94
68380;BME280;57711;53.196;19.638;2023-02-19T11:42:39;99671.14;;;7.67;68.71
68380;BME280;57711;53.196;19.638;2023-02-19T11:50:26;99672.58;;;7.21;68.20
68380;BME280;57711;53.196;19.638;2023-02-19T12:06:35;99701.02;;;6.53;68.38
68380;BME280;57711;53.196;19.638;2023-02-19T12:25:57;99719.73;;;6.37;67.75
68380;BME280;57711;53.196;19.638;2023-02-19T12:34:20;99726.84;;;6.06;67.48
68380;BME280;57711;53.196;19.638;2023-02-19T12:45:48;99736.19;;;5.68;67.14
68380;BME280;57711;53.196;19.638;2023-02-19T12:48:45;99742.15;;;5.68;67.30
68380;BME280;57711;53.196;19.638;2023-02-19T12:54:03;99743.76;;;5.80;67.50
68380;BME280;57711;53.196;19.638;2023-02-19T12:56:35;99748.92;;;5.85;67.50
68380;BME280;57711;53.196;19.638;2023-02-19T13:01:38;99751.44;;;6.20;67.62
68380;BME280;57711;53.196;19.638;2023-02-19T13:04:23;99747.20;;;6.39;67.47
68380;BME280;57711;53.196;19.638;2023-02-19T13:09:49;99748.52;;;6.72;67.30
68380;BME280;57711;53.196;19.638;2023-02-19T13:12:28;99747.97;;;6.81;67.14
68380;BME280;57711;53.196;19.638;2023-02-19T13:14:59;99745.15;;;6.94;67.36
68380;BME280;57711;53.196;19.638;2023-02-19T13:17:37;99747.21;;;7.05;67.25
68380;BME280;57711;53.196;19.638;2023-02-19T13:37:18;99780.23;;;6.55;66.53
68380;BME280;57711;53.196;19.638;2023-02-19T13:39:48;99782.79;;;6.62;66.63
68380;BME280;57711;53.196;19.638;2023-02-19T13:42:36;99781.95;;;6.70;66.81
68380;BME280;57711;53.196;19.638;2023-02-19T13:45:05;99785.75;;;6.78;66.55
68380;BME280;57711;53.196;19.638;2023-02-19T13:47:58;99782.12;;;6.85;66.67
68380;BME280;57711;53.196;19.638;2023-02-19T13:50:27;99785.95;;;6.93;66.69
68380;BME280;57711;53.196;19.638;2023-02-19T13:52:55;99783.97;;;7.00;66.65
68380;BME280;57711;53.196;19.638;2023-02-19T14:01:01;99795.70;;;7.06;66.35
68380;BME280;57711;53.196;19.638;2023-02-19T14:06:08;99798.72;;;7.07;66.45
68380;BME280;57711;53.196;19.638;2023-02-19T14:08:45;99795.05;;;7.07;66.36
68380;BME280;57711;53.196;19.638;2023-02-19T14:11:13;99797.09;;;7.09;66.30
68380;BME280;57711;53.196;19.638;2023-02-19T14:18:54;99798.61;;;6.97;65.97
68380;BME280;57711;53.196;19.638;2023-02-19T14:21:24;99800.39;;;6.88;66.06
68380;BME280;57711;53.196;19.638;2023-02-19T14:23:55;99802.27;;;6.76;66.03
68380;BME280;57711;53.196;19.638;2023-02-19T14:26:24;99805.55;;;6.64;65.82
68380;BME280;57711;53.196;19.638;2023-02-19T14:28:52;99812.66;;;6.54;65.89
68380;BME280;57711;53.196;19.638;2023-02-19T14:31:27;99817.95;;;6.46;65.81
68380;BME280;57711;53.196;19.638;2023-02-19T14:34:00;99820.30;;;6.39;65.70
68380;BME280;57711;53.196;19.638;2023-02-19T14:36:43;99816.30;;;6.28;65.74
68380;BME280;57711;53.196;19.638;2023-02-19T14:39:17;99821.42;;;6.13;65.58
68380;BME280;57711;53.196;19.638;2023-02-19T14:41:48;99827.95;;;6.05;65.57
68380;BME280;57711;53.196;19.638;2023-02-19T14:44:24;99839.73;;;6.01;65.62
68380;BME280;57711;53.196;19.638;2023-02-19T14:47:02;99845.14;;;5.96;65.65
68380;BME280;57711;53.196;19.638;2023-02-19T14:49:41;99841.00;;;5.89;65.67
68380;BME280;57711;53.196;19.638;2023-02-19T14:52:22;99839.20;;;5.84;65.58
68380;BME280;57711;53.196;19.638;2023-02-19T14:57:37;99847.55;;;5.74;65.55
68380;BME280;57711;53.196;19.638;2023-02-19T15:02:53;99849.54;;;5.59;65.40
68380;BME280;57711;53.196;19.638;2023-02-19T15:05:30;99852.45;;;5.54;65.50
68380;BME280;57711;53.196;19.638;2023-02-19T15:08:01;99852.77;;;5.50;65.25
68380;BME280;57711;53.196;19.638;2023-02-19T15:10:31;99863.54;;;5.45;65.53
68380;BME280;57711;53.196;19.638;2023-02-19T15:13:02;99860.28;;;5.43;65.53
68380;BME280;57711;53.196;19.638;2023-02-19T15:15:38;99858.00;;;5.40;65.32
68380;BME280;57711;53.196;19.638;2023-02-19T15:18:17;99860.11;;;5.38;65.48
68380;BME280;57711;53.196;19.638;2023-02-19T15:20:45;99860.23;;;5.36;65.33
68380;BME280;57711;53.196;19.638;2023-02-19T15:23:23;99866.39;;;5.35;65.38
68380;BME280;57711;53.196;19.638;2023-02-19T15:25:51;99864.23;;;5.33;65.42
68380;BME280;57711;53.196;19.638;2023-02-19T15:33:26;99873.15;;;5.21;64.93
68380;BME280;57711;53.196;19.638;2023-02-19T15:35:59;99875.77;;;5.15;64.90
68380;BME280;57711;53.196;19.638;2023-02-19T15:38:28;99877.77;;;5.10;64.89